sensor_id;sensor_type;location;lat;lon;timestamp;P1;durP1;ratioP1;P2;durP2;ratioP2
43857;SDS011;29507;51.284;5.758;2023-01-06T00:00:23;3.28;;;1.33;;
43857;SDS011;29507;51.284;5.758;2023-01-06T00:02:49;4.85;;;1.80;;
43857;SDS011;29507;51.284;5.758;2023-01-06T00:05:15;3.67;;;1.13;;
43857;SDS011;29507;51.284;5.758;2023-01-06T00:07:41;5.25;;;1.33;;
43857;SDS011;29507;51.284;5.758;2023-01-06T00:10:08;4.32;;;1.20;;
43857;SDS011;29507;51.284;5.758;2023-01-06T00:12:35;3.15;;;1.20;;
43857;SDS011;29507;51.284;5.758;2023-01-06T00:15:01;4.68;;;1.60;;
43857;SDS011;29507;51.284;5.758;2023-01-06T00:17:27;3.25;;;0.98;;
43857;SDS011;29507;51.284;5.758;2023-01-06T00:19:52;2.88;;;0.80;;
43857;SDS011;29507;51.284;5.758;2023-01-06T00:22:18;3.78;;;1.38;;
43857;SDS011;29507;51.284;5.758;2023-01-06T00:24:44;2.22;;;0.88;;
43857;SDS011;29507;51.284;5.758;2023-01-06T00:27:10;3.33;;;1.20;;
43857;SDS011;29507;51.284;5.758;2023-01-06T00:29:35;5.30;;;1.10;;
43857;SDS011;29507;51.284;5.758;2023-01-06T00:32:01;1.35;;;0.70;;
43857;SDS011;29507;51.284;5.758;2023-01-06T00:34:27;4.30;;;1.23;;
43857;SDS011;29507;51.284;5.758;2023-01-06T00:36:53;2.92;;;1.08;;
43857;SDS011;29507;51.284;5.758;2023-01-06T00:39:20;2.10;;;0.90;;
43857;SDS011;29507;51.284;5.758;2023-01-06T00:41:45;2.28;;;0.90;;
43857;SDS011;29507;51.284;5.758;2023-01-06T00:44:37;2.85;;;1.15;;
43857;SDS011;29507;51.284;5.758;2023-01-06T00:47:05;5.38;;;1.00;;
43857;SDS011;29507;51.284;5.758;2023-01-06T00:49:32;4.40;;;1.00;;
43857;SDS011;29507;51.284;5.758;2023-01-06T00:51:58;6.40;;;1.17;;
43857;SDS011;29507;51.284;5.758;2023-01-06T00:54:24;3.45;;;0.90;;
43857;SDS011;29507;51.284;5.758;2023-01-06T00:56:50;3.28;;;0.77;;
43857;SDS011;29507;51.284;5.758;2023-01-06T00:59:22;4.28;;;1.10;;
43857;SDS011;29507;51.284;5.758;2023-01-06T01:01:50;5.18;;;1.30;;
43857;SDS011;29507;51.284;5.758;2023-01-06T01:04:17;3.03;;;1.02;;
43857;SDS011;29507;51.284;5.758;2023-01-06T01:06:44;4.80;;;1.30;;
43857;SDS011;29507;51.284;5.758;2023-01-06T01:09:15;3.78;;;1.10;;
43857;SDS011;29507;51.284;5.758;2023-01-06T01:11:43;4.03;;;0.98;;
43857;SDS011;29507;51.284;5.758;2023-01-06T01:14:28;3.20;;;0.95;;
43857;SDS011;29507;51.284;5.758;2023-01-06T01:16:54;7.88;;;1.00;;
43857;SDS011;29507;51.284;5.758;2023-01-06T01:19:19;4.97;;;0.90;;
43857;SDS011;29507;51.284;5.758;2023-01-06T01:21:45;3.15;;;0.80;;
43857;SDS011;29507;51.284;5.758;2023-01-06T01:24:11;4.07;;;1.35;;
43857;SDS011;29507;51.284;5.758;2023-01-06T01:26:37;5.45;;;1.00;;
43857;SDS011;29507;51.284;5.758;2023-01-06T01:29:03;4.25;;;1.08;;
43857;SDS011;29507;51.284;5.758;2023-01-06T01:31:29;2.97;;;0.90;;
43857;SDS011;29507;51.284;5.758;2023-01-06T01:33:55;7.50;;;0.98;;
43857;SDS011;29507;51.284;5.758;2023-01-06T01:36:21;3.58;;;0.90;;
43857;SDS011;29507;51.284;5.758;2023-01-06T01:38:46;9.02;;;1.75;;
43857;SDS011;29507;51.284;5.758;2023-01-06T01:41:16;3.38;;;1.25;;
43857;SDS011;29507;51.284;5.758;2023-01-06T01:43:45;3.55;;;1.00;;
43857;SDS011;29507;51.284;5.758;2023-01-06T01:46:10;4.65;;;1.05;;
43857;SDS011;29507;51.284;5.758;2023-01-06T01:48:38;3.75;;;1.00;;
43857;SDS011;29507;51.284;5.758;2023-01-06T01:51:05;5.25;;;1.35;;
43857;SDS011;29507;51.284;5.758;2023-01-06T01:53:44;4.97;;;1.10;;
43857;SDS011;29507;51.284;5.758;2023-01-06T01:56:14;2.13;;;0.80;;
43857;SDS011;29507;51.284;5.758;2023-01-06T01:58:47;2.35;;;0.98;;
43857;SDS011;29507;51.284;5.758;2023-01-06T02:01:18;6.00;;;1.20;;
43857;SDS011;29507;51.284;5.758;2023-01-06T02:03:44;5.18;;;1.33;;
43857;SDS011;29507;51.284;5.758;2023-01-06T02:06:11;3.65;;;0.90;;
43857;SDS011;29507;51.284;5.758;2023-01-06T02:08:43;2.80;;;0.85;;
43857;SDS011;29507;51.284;5.758;2023-01-06T02:11:15;6.35;;;1.20;;
43857;SDS011;29507;51.284;5.758;2023-01-06T02:13:42;4.85;;;0.75;;
43857;SDS011;29507;51.284;5.758;2023-01-06T02:33:29;2.10;;;0.80;;
43857;SDS011;29507;51.284;5.758;2023-01-06T02:38:57;4.35;;;0.95;;
43857;SDS011;29507;51.284;5.758;2023-01-06T02:45:00;1.63;;;0.50;;
43857;SDS011;29507;51.284;5.758;2023-01-06T02:52:52;4.93;;;1.17;;
43857;SDS011;29507;51.284;5.758;2023-01-06T02:58:34;4.07;;;0.88;;
43857;SDS011;29507;51.284;5.758;2023-01-06T03:01:12;3.78;;;0.98;;
43857;SDS011;29507;51.284;5.758;2023-01-06T03:03:51;7.00;;;0.98;;
43857;SDS011;29507;51.284;5.758;2023-01-06T03:06:19;1.90;;;0.60;;
43857;SDS011;29507;51.284;5.758;2023-01-06T03:08:50;2.15;;;0.60;;
43857;SDS011;29507;51.284;5.758;2023-01-06T03:11:19;3.27;;;0.70;;
43857;SDS011;29507;51.284;5.758;2023-01-06T03:13:51;2.33;;;0.70;;
43857;SDS011;29507;51.284;5.758;2023-01-06T03:16:23;2.67;;;0.75;;
43857;SDS011;29507;51.284;5.758;2023-01-06T03:18:49;4.20;;;0.40;;
43857;SDS011;29507;51.284;5.758;2023-01-06T03:21:17;5.75;;;0.65;;
43857;SDS011;29507;51.284;5.758;2023-01-06T03:23:46;2.67;;;0.68;;
43857;SDS011;29507;51.284;5.758;2023-01-06T03:26:12;2.45;;;0.60;;
43857;SDS011;29507;51.284;5.758;2023-01-06T03:28:38;6.15;;;0.57;;
43857;SDS011;29507;51.284;5.758;2023-01-06T03:36:27;1.75;;;0.50;;
43857;SDS011;29507;51.284;5.758;2023-01-06T03:39:04;5.28;;;0.65;;
43857;SDS011;29507;51.284;5.758;2023-01-06T03:41:39;3.78;;;0.60;;
43857;SDS011;29507;51.284;5.758;2023-01-06T03:50:16;3.42;;;0.50;;
43857;SDS011;29507;51.284;5.758;2023-01-06T03:53:01;3.05;;;0.70;;
43857;SDS011;29507;51.284;5.758;2023-01-06T03:55:50;5.15;;;0.70;;
43857;SDS011;29507;51.284;5.758;2023-01-06T03:58:38;3.33;;;0.82;;
43857;SDS011;29507;51.284;5.758;2023-01-06T04:01:05;4.63;;;0.55;;
43857;SDS011;29507;51.284;5.758;2023-01-06T04:03:32;3.05;;;1.35;;
43857;SDS011;29507;51.284;5.758;2023-01-06T04:05:59;3.35;;;0.75;;
43857;SDS011;29507;51.284;5.758;2023-01-06T04:08:25;2.78;;;0.75;;
43857;SDS011;29507;51.284;5.758;2023-01-06T04:10:50;4.72;;;0.90;;
43857;SDS011;29507;51.284;5.758;2023-01-06T04:13:16;1.92;;;0.75;;
43857;SDS011;29507;51.284;5.758;2023-01-06T04:15:42;3.72;;;0.70;;
43857;SDS011;29507;51.284;5.758;2023-01-06T04:18:07;4.85;;;1.10;;
43857;SDS011;29507;51.284;5.758;2023-01-06T04:20:33;3.35;;;0.43;;
43857;SDS011;29507;51.284;5.758;2023-01-06T04:22:59;2.95;;;0.93;;
43857;SDS011;29507;51.284;5.758;2023-01-06T04:25:24;2.90;;;1.00;;
43857;SDS011;29507;51.284;5.758;2023-01-06T04:27:50;3.03;;;0.90;;
43857;SDS011;29507;51.284;5.758;2023-01-06T04:30:16;1.85;;;0.57;;
43857;SDS011;29507;51.284;5.758;2023-01-06T04:32:42;1.88;;;0.50;;
43857;SDS011;29507;51.284;5.758;2023-01-06T04:35:08;3.65;;;0.77;;
43857;SDS011;29507;51.284;5.758;2023-01-06T04:37:34;6.72;;;1.23;;
43857;SDS011;29507;51.284;5.758;2023-01-06T04:40:00;1.17;;;0.60;;
43857;SDS011;29507;51.284;5.758;2023-01-06T04:42:26;3.05;;;0.82;;
43857;SDS011;29507;51.284;5.758;2023-01-06T04:44:52;3.88;;;0.80;;
43857;SDS011;29507;51.284;5.758;2023-01-06T04:47:17;8.05;;;0.85;;
43857;SDS011;29507;51.284;5.758;2023-01-06T04:49:43;7.53;;;0.82;;
43857;SDS011;29507;51.284;5.758;2023-01-06T04:52:09;3.53;;;1.25;;
43857;SDS011;29507;51.284;5.758;2023-01-06T04:54:35;6.05;;;1.05;;
43857;SDS011;29507;51.284;5.758;2023-01-06T04:57:00;4.63;;;0.93;;
43857;SDS011;29507;51.284;5.758;2023-01-06T04:59:26;1.60;;;0.68;;
43857;SDS011;29507;51.284;5.758;2023-01-06T05:01:52;2.28;;;0.82;;
43857;SDS011;29507;51.284;5.758;2023-01-06T05:04:18;4.05;;;1.13;;
43857;SDS011;29507;51.284;5.758;2023-01-06T05:06:44;4.60;;;1.15;;
43857;SDS011;29507;51.284;5.758;2023-01-06T05:09:09;3.00;;;0.77;;
43857;SDS011;29507;51.284;5.758;2023-01-06T05:11:35;2.38;;;0.60;;
43857;SDS011;29507;51.284;5.758;2023-01-06T05:14:01;4.13;;;0.90;;
43857;SDS011;29507;51.284;5.758;2023-01-06T05:16:28;2.95;;;0.93;;
43857;SDS011;29507;51.284;5.758;2023-01-06T05:21:22;2.38;;;0.70;;
43857;SDS011;29507;51.284;5.758;2023-01-06T05:23:50;2.55;;;1.10;;
43857;SDS011;29507;51.284;5.758;2023-01-06T05:26:18;5.07;;;0.98;;
43857;SDS011;29507;51.284;5.758;2023-01-06T05:28:45;5.45;;;0.65;;
43857;SDS011;29507;51.284;5.758;2023-01-06T05:31:11;2.38;;;0.77;;
43857;SDS011;29507;51.284;5.758;2023-01-06T05:33:37;3.38;;;1.40;;
43857;SDS011;29507;51.284;5.758;2023-01-06T05:36:07;3.63;;;0.80;;
43857;SDS011;29507;51.284;5.758;2023-01-06T05:38:35;1.92;;;0.70;;
43857;SDS011;29507;51.284;5.758;2023-01-06T05:41:01;1.80;;;0.73;;
43857;SDS011;29507;51.284;5.758;2023-01-06T05:43:27;3.15;;;0.90;;
43857;SDS011;29507;51.284;5.758;2023-01-06T05:45:53;3.45;;;0.82;;
43857;SDS011;29507;51.284;5.758;2023-01-06T05:48:20;5.80;;;0.98;;
43857;SDS011;29507;51.284;5.758;2023-01-06T05:50:49;2.50;;;0.85;;
43857;SDS011;29507;51.284;5.758;2023-01-06T05:53:15;2.45;;;0.80;;
43857;SDS011;29507;51.284;5.758;2023-01-06T05:55:40;1.50;;;0.73;;
43857;SDS011;29507;51.284;5.758;2023-01-06T05:58:06;6.43;;;1.00;;
43857;SDS011;29507;51.284;5.758;2023-01-06T06:00:32;2.15;;;0.75;;
43857;SDS011;29507;51.284;5.758;2023-01-06T06:02:57;2.28;;;0.60;;
43857;SDS011;29507;51.284;5.758;2023-01-06T06:05:23;8.68;;;1.45;;
43857;SDS011;29507;51.284;5.758;2023-01-06T06:07:52;4.05;;;0.95;;
43857;SDS011;29507;51.284;5.758;2023-01-06T06:10:19;1.67;;;0.73;;
43857;SDS011;29507;51.284;5.758;2023-01-06T06:12:45;3.97;;;2.28;;
43857;SDS011;29507;51.284;5.758;2023-01-06T06:15:11;3.45;;;0.80;;
43857;SDS011;29507;51.284;5.758;2023-01-06T06:17:37;1.45;;;0.73;;
43857;SDS011;29507;51.284;5.758;2023-01-06T06:20:02;4.65;;;0.90;;
43857;SDS011;29507;51.284;5.758;2023-01-06T06:22:29;2.08;;;0.60;;
43857;SDS011;29507;51.284;5.758;2023-01-06T06:24:55;1.85;;;0.50;;
43857;SDS011;29507;51.284;5.758;2023-01-06T06:27:20;5.90;;;0.60;;
43857;SDS011;29507;51.284;5.758;2023-01-06T06:29:46;3.67;;;0.85;;
43857;SDS011;29507;51.284;5.758;2023-01-06T06:32:12;2.85;;;0.63;;
43857;SDS011;29507;51.284;5.758;2023-01-06T06:34:37;2.17;;;0.70;;
43857;SDS011;29507;51.284;5.758;2023-01-06T06:37:03;2.50;;;0.65;;
43857;SDS011;29507;51.284;5.758;2023-01-06T06:39:29;2.28;;;0.60;;
43857;SDS011;29507;51.284;5.758;2023-01-06T06:41:54;1.05;;;0.50;;
43857;SDS011;29507;51.284;5.758;2023-01-06T06:44:20;1.70;;;0.70;;
43857;SDS011;29507;51.284;5.758;2023-01-06T06:46:46;1.35;;;0.60;;
43857;SDS011;29507;51.284;5.758;2023-01-06T06:49:11;3.08;;;0.50;;
43857;SDS011;29507;51.284;5.758;2023-01-06T06:51:37;2.65;;;0.70;;
43857;SDS011;29507;51.284;5.758;2023-01-06T06:54:03;2.25;;;0.50;;
43857;SDS011;29507;51.284;5.758;2023-01-06T06:56:29;1.50;;;0.60;;
43857;SDS011;29507;51.284;5.758;2023-01-06T06:58:54;1.50;;;0.60;;
43857;SDS011;29507;51.284;5.758;2023-01-06T07:01:20;2.22;;;0.93;;
43857;SDS011;29507;51.284;5.758;2023-01-06T07:03:47;1.50;;;0.63;;
43857;SDS011;29507;51.284;5.758;2023-01-06T07:06:15;1.80;;;0.95;;
43857;SDS011;29507;51.284;5.758;2023-01-06T07:08:44;2.33;;;0.90;;
43857;SDS011;29507;51.284;5.758;2023-01-06T07:11:11;1.73;;;0.70;;
43857;SDS011;29507;51.284;5.758;2023-01-06T07:13:37;1.92;;;0.80;;
43857;SDS011;29507;51.284;5.758;2023-01-06T07:16:03;1.20;;;0.55;;
43857;SDS011;29507;51.284;5.758;2023-01-06T07:18:29;2.28;;;0.70;;
43857;SDS011;29507;51.284;5.758;2023-01-06T07:20:55;2.30;;;0.70;;
43857;SDS011;29507;51.284;5.758;2023-01-06T07:23:21;5.18;;;0.73;;
43857;SDS011;29507;51.284;5.758;2023-01-06T07:25:54;2.90;;;1.20;;
43857;SDS011;29507;51.284;5.758;2023-01-06T07:28:21;1.42;;;0.70;;
43857;SDS011;29507;51.284;5.758;2023-01-06T07:30:48;1.67;;;0.77;;
43857;SDS011;29507;51.284;5.758;2023-01-06T07:33:14;2.97;;;0.75;;
43857;SDS011;29507;51.284;5.758;2023-01-06T07:35:39;1.50;;;0.70;;
43857;SDS011;29507;51.284;5.758;2023-01-06T07:38:05;1.90;;;0.80;;
43857;SDS011;29507;51.284;5.758;2023-01-06T07:40:32;2.17;;;0.90;;
43857;SDS011;29507;51.284;5.758;2023-01-06T07:43:05;2.78;;;0.90;;
43857;SDS011;29507;51.284;5.758;2023-01-06T07:45:32;2.58;;;0.80;;
43857;SDS011;29507;51.284;5.758;2023-01-06T07:47:59;2.00;;;0.90;;
43857;SDS011;29507;51.284;5.758;2023-01-06T07:50:24;1.73;;;0.80;;
43857;SDS011;29507;51.284;5.758;2023-01-06T07:52:50;1.77;;;0.90;;
43857;SDS011;29507;51.284;5.758;2023-01-06T07:55:16;1.55;;;0.90;;
43857;SDS011;29507;51.284;5.758;2023-01-06T07:57:42;1.92;;;0.70;;
43857;SDS011;29507;51.284;5.758;2023-01-06T08:00:07;3.45;;;0.77;;
43857;SDS011;29507;51.284;5.758;2023-01-06T08:02:34;1.55;;;0.73;;
43857;SDS011;29507;51.284;5.758;2023-01-06T08:04:59;2.70;;;1.10;;
43857;SDS011;29507;51.284;5.758;2023-01-06T08:07:25;4.22;;;0.80;;
43857;SDS011;29507;51.284;5.758;2023-01-06T08:09:51;1.38;;;0.50;;
43857;SDS011;29507;51.284;5.758;2023-01-06T08:12:17;3.95;;;0.90;;
43857;SDS011;29507;51.284;5.758;2023-01-06T08:14:43;4.25;;;0.95;;
43857;SDS011;29507;51.284;5.758;2023-01-06T08:17:08;1.90;;;0.93;;
43857;SDS011;29507;51.284;5.758;2023-01-06T08:19:34;1.52;;;0.60;;
43857;SDS011;29507;51.284;5.758;2023-01-06T08:22:00;4.00;;;1.02;;
43857;SDS011;29507;51.284;5.758;2023-01-06T08:24:26;2.58;;;0.80;;
43857;SDS011;29507;51.284;5.758;2023-01-06T08:26:54;2.05;;;0.77;;
43857;SDS011;29507;51.284;5.758;2023-01-06T08:29:21;2.78;;;1.20;;
43857;SDS011;29507;51.284;5.758;2023-01-06T08:31:47;4.47;;;1.08;;
43857;SDS011;29507;51.284;5.758;2023-01-06T08:34:13;2.00;;;0.70;;
43857;SDS011;29507;51.284;5.758;2023-01-06T08:36:39;3.78;;;1.10;;
43857;SDS011;29507;51.284;5.758;2023-01-06T08:39:06;1.52;;;0.73;;
43857;SDS011;29507;51.284;5.758;2023-01-06T08:41:32;2.03;;;1.02;;
43857;SDS011;29507;51.284;5.758;2023-01-06T08:43:57;6.35;;;0.85;;
43857;SDS011;29507;51.284;5.758;2023-01-06T08:46:23;1.98;;;0.90;;
43857;SDS011;29507;51.284;5.758;2023-01-06T08:48:50;3.83;;;0.95;;
43857;SDS011;29507;51.284;5.758;2023-01-06T08:51:17;3.20;;;0.70;;
43857;SDS011;29507;51.284;5.758;2023-01-06T08:53:45;2.38;;;1.15;;
43857;SDS011;29507;51.284;5.758;2023-01-06T08:56:15;1.65;;;0.70;;
43857;SDS011;29507;51.284;5.758;2023-01-06T08:58:50;1.58;;;1.05;;
43857;SDS011;29507;51.284;5.758;2023-01-06T09:01:22;3.28;;;1.63;;
43857;SDS011;29507;51.284;5.758;2023-01-06T09:03:49;1.67;;;0.80;;
43857;SDS011;29507;51.284;5.758;2023-01-06T09:06:15;2.22;;;1.13;;
43857;SDS011;29507;51.284;5.758;2023-01-06T09:08:42;3.22;;;1.15;;
43857;SDS011;29507;51.284;5.758;2023-01-06T09:11:08;2.65;;;1.20;;
43857;SDS011;29507;51.284;5.758;2023-01-06T09:13:35;2.13;;;0.88;;
43857;SDS011;29507;51.284;5.758;2023-01-06T09:16:04;3.72;;;1.48;;
43857;SDS011;29507;51.284;5.758;2023-01-06T09:18:31;2.78;;;1.05;;
43857;SDS011;29507;51.284;5.758;2023-01-06T09:20:57;1.60;;;0.75;;
43857;SDS011;29507;51.284;5.758;2023-01-06T09:23:22;2.53;;;0.63;;
43857;SDS011;29507;51.284;5.758;2023-01-06T09:25:48;1.88;;;0.70;;
43857;SDS011;29507;51.284;5.758;2023-01-06T09:28:14;3.80;;;1.00;;
43857;SDS011;29507;51.284;5.758;2023-01-06T09:30:40;1.58;;;0.60;;
43857;SDS011;29507;51.284;5.758;2023-01-06T09:33:06;1.83;;;0.60;;
43857;SDS011;29507;51.284;5.758;2023-01-06T09:35:32;1.27;;;0.60;;
43857;SDS011;29507;51.284;5.758;2023-01-06T09:37:58;2.42;;;0.70;;
43857;SDS011;29507;51.284;5.758;2023-01-06T09:40:31;2.33;;;0.90;;
43857;SDS011;29507;51.284;5.758;2023-01-06T09:43:39;1.73;;;0.80;;
43857;SDS011;29507;51.284;5.758;2023-01-06T09:46:15;1.83;;;0.88;;
43857;SDS011;29507;51.284;5.758;2023-01-06T09:51:22;2.65;;;1.05;;
43857;SDS011;29507;51.284;5.758;2023-01-06T09:53:53;2.25;;;0.73;;
43857;SDS011;29507;51.284;5.758;2023-01-06T09:56:24;2.95;;;0.65;;
43857;SDS011;29507;51.284;5.758;2023-01-06T10:01:57;1.55;;;0.80;;
43857;SDS011;29507;51.284;5.758;2023-01-06T10:04:26;5.72;;;1.00;;
43857;SDS011;29507;51.284;5.758;2023-01-06T10:12:46;1.58;;;0.85;;
43857;SDS011;29507;51.284;5.758;2023-01-06T10:25:52;4.28;;;1.15;;
43857;SDS011;29507;51.284;5.758;2023-01-06T10:31:25;4.20;;;1.10;;
43857;SDS011;29507;51.284;5.758;2023-01-06T10:33:57;1.27;;;0.60;;
43857;SDS011;29507;51.284;5.758;2023-01-06T10:36:31;4.35;;;1.13;;
43857;SDS011;29507;51.284;5.758;2023-01-06T10:39:02;1.63;;;0.73;;
43857;SDS011;29507;51.284;5.758;2023-01-06T10:43:56;2.35;;;1.10;;
43857;SDS011;29507;51.284;5.758;2023-01-06T10:46:22;4.10;;;0.80;;
43857;SDS011;29507;51.284;5.758;2023-01-06T10:48:54;1.67;;;0.68;;
43857;SDS011;29507;51.284;5.758;2023-01-06T10:53:48;2.75;;;1.02;;
43857;SDS011;29507;51.284;5.758;2023-01-06T10:56:14;4.35;;;1.42;;
43857;SDS011;29507;51.284;5.758;2023-01-06T10:58:45;3.05;;;1.17;;
43857;SDS011;29507;51.284;5.758;2023-01-06T11:01:14;4.05;;;0.95;;
43857;SDS011;29507;51.284;5.758;2023-01-06T11:03:47;2.90;;;0.90;;
43857;SDS011;29507;51.284;5.758;2023-01-06T11:06:42;2.05;;;0.90;;
43857;SDS011;29507;51.284;5.758;2023-01-06T11:12:21;1.83;;;0.70;;
43857;SDS011;29507;51.284;5.758;2023-01-06T11:15:01;3.38;;;0.80;;
43857;SDS011;29507;51.284;5.758;2023-01-06T11:17:30;4.80;;;1.00;;
43857;SDS011;29507;51.284;5.758;2023-01-06T11:20:07;2.67;;;0.80;;
43857;SDS011;29507;51.284;5.758;2023-01-06T11:22:42;2.00;;;0.88;;
43857;SDS011;29507;51.284;5.758;2023-01-06T11:27:43;2.45;;;0.80;;
43857;SDS011;29507;51.284;5.758;2023-01-06T11:30:21;5.00;;;0.90;;
43857;SDS011;29507;51.284;5.758;2023-01-06T11:32:51;2.03;;;0.80;;
43857;SDS011;29507;51.284;5.758;2023-01-06T11:35:18;6.60;;;2.00;;
43857;SDS011;29507;51.284;5.758;2023-01-06T11:37:45;2.88;;;0.82;;
43857;SDS011;29507;51.284;5.758;2023-01-06T11:42:49;3.30;;;0.70;;
43857;SDS011;29507;51.284;5.758;2023-01-06T11:49:00;3.05;;;0.95;;
43857;SDS011;29507;51.284;5.758;2023-01-06T11:51:31;8.40;;;1.40;;
43857;SDS011;29507;51.284;5.758;2023-01-06T11:54:20;5.35;;;1.15;;
43857;SDS011;29507;51.284;5.758;2023-01-06T11:59:42;6.93;;;1.10;;
43857;SDS011;29507;51.284;5.758;2023-01-06T12:02:21;3.80;;;0.60;;
43857;SDS011;29507;51.284;5.758;2023-01-06T12:04:56;5.18;;;0.98;;
43857;SDS011;29507;51.284;5.758;2023-01-06T12:09:57;4.80;;;0.73;;
43857;SDS011;29507;51.284;5.758;2023-01-06T12:12:29;2.78;;;0.70;;
43857;SDS011;29507;51.284;5.758;2023-01-06T12:14:55;1.80;;;0.80;;
43857;SDS011;29507;51.284;5.758;2023-01-06T12:17:33;1.83;;;0.57;;
43857;SDS011;29507;51.284;5.758;2023-01-06T12:20:12;3.03;;;0.93;;
43857;SDS011;29507;51.284;5.758;2023-01-06T12:22:53;4.47;;;1.42;;
43857;SDS011;29507;51.284;5.758;2023-01-06T12:25:30;1.50;;;0.70;;
43857;SDS011;29507;51.284;5.758;2023-01-06T12:28:02;2.10;;;0.70;;
43857;SDS011;29507;51.284;5.758;2023-01-06T12:30:53;2.15;;;0.60;;
43857;SDS011;29507;51.284;5.758;2023-01-06T12:33:32;3.30;;;0.63;;
43857;SDS011;29507;51.284;5.758;2023-01-06T12:36:07;2.08;;;0.93;;
43857;SDS011;29507;51.284;5.758;2023-01-06T12:44:08;1.50;;;0.73;;
43857;SDS011;29507;51.284;5.758;2023-01-06T12:47:00;1.55;;;0.60;;
43857;SDS011;29507;51.284;5.758;2023-01-06T12:49:34;3.75;;;0.70;;
43857;SDS011;29507;51.284;5.758;2023-01-06T12:52:15;2.17;;;0.88;;
43857;SDS011;29507;51.284;5.758;2023-01-06T12:54:45;1.35;;;0.65;;
43857;SDS011;29507;51.284;5.758;2023-01-06T12:57:29;3.08;;;0.80;;
43857;SDS011;29507;51.284;5.758;2023-01-06T13:00:27;2.03;;;0.82;;
43857;SDS011;29507;51.284;5.758;2023-01-06T13:03:33;1.23;;;0.60;;
43857;SDS011;29507;51.284;5.758;2023-01-06T13:21:54;1.58;;;0.60;;
43857;SDS011;29507;51.284;5.758;2023-01-06T13:24:27;3.28;;;0.50;;
43857;SDS011;29507;51.284;5.758;2023-01-06T13:40:25;1.70;;;0.68;;
43857;SDS011;29507;51.284;5.758;2023-01-06T13:42:58;1.55;;;0.80;;
43857;SDS011;29507;51.284;5.758;2023-01-06T13:45:39;3.47;;;0.90;;
43857;SDS011;29507;51.284;5.758;2023-01-06T13:48:08;5.25;;;1.10;;
43857;SDS011;29507;51.284;5.758;2023-01-06T13:50:44;2.00;;;0.70;;
43857;SDS011;29507;51.284;5.758;2023-01-06T13:53:16;2.67;;;0.90;;
43857;SDS011;29507;51.284;5.758;2023-01-06T13:55:47;1.63;;;0.70;;
43857;SDS011;29507;51.284;5.758;2023-01-06T13:58:33;1.60;;;0.80;;
43857;SDS011;29507;51.284;5.758;2023-01-06T14:03:39;1.98;;;0.98;;
43857;SDS011;29507;51.284;5.758;2023-01-06T14:06:51;1.80;;;0.85;;
43857;SDS011;29507;51.284;5.758;2023-01-06T14:08:55;2.00;;;0.90;;
43857;SDS011;29507;51.284;5.758;2023-01-06T14:11:33;1.50;;;0.70;;
43857;SDS011;29507;51.284;5.758;2023-01-06T14:14:05;1.42;;;0.80;;
43857;SDS011;29507;51.284;5.758;2023-01-06T14:16:43;1.83;;;0.98;;
43857;SDS011;29507;51.284;5.758;2023-01-06T14:19:14;2.10;;;0.70;;
43857;SDS011;29507;51.284;5.758;2023-01-06T14:21:40;2.10;;;0.93;;
43857;SDS011;29507;51.284;5.758;2023-01-06T14:24:17;1.52;;;0.85;;
43857;SDS011;29507;51.284;5.758;2023-01-06T14:32:10;1.42;;;0.70;;
43857;SDS011;29507;51.284;5.758;2023-01-06T14:35:02;4.55;;;1.00;;
43857;SDS011;29507;51.284;5.758;2023-01-06T14:37:40;2.35;;;0.93;;
43857;SDS011;29507;51.284;5.758;2023-01-06T14:40:22;3.55;;;1.10;;
43857;SDS011;29507;51.284;5.758;2023-01-06T14:42:58;2.40;;;1.30;;
43857;SDS011;29507;51.284;5.758;2023-01-06T14:45:28;2.17;;;1.10;;
43857;SDS011;29507;51.284;5.758;2023-01-06T14:48:00;3.20;;;1.40;;
43857;SDS011;29507;51.284;5.758;2023-01-06T14:50:30;2.42;;;1.58;;
43857;SDS011;29507;51.284;5.758;2023-01-06T14:53:04;4.25;;;1.15;;
43857;SDS011;29507;51.284;5.758;2023-01-06T14:55:34;2.25;;;1.27;;
43857;SDS011;29507;51.284;5.758;2023-01-06T14:58:04;3.25;;;1.10;;
43857;SDS011;29507;51.284;5.758;2023-01-06T15:00:30;3.40;;;1.33;;
43857;SDS011;29507;51.284;5.758;2023-01-06T15:05:28;2.92;;;1.40;;
43857;SDS011;29507;51.284;5.758;2023-01-06T15:08:02;3.53;;;1.95;;
43857;SDS011;29507;51.284;5.758;2023-01-06T15:10:40;3.63;;;2.10;;
43857;SDS011;29507;51.284;5.758;2023-01-06T15:16:07;4.95;;;2.42;;
43857;SDS011;29507;51.284;5.758;2023-01-06T15:18:47;3.28;;;1.92;;
43857;SDS011;29507;51.284;5.758;2023-01-06T15:21:17;3.92;;;2.00;;
43857;SDS011;29507;51.284;5.758;2023-01-06T15:23:44;4.55;;;2.20;;
43857;SDS011;29507;51.284;5.758;2023-01-06T15:26:15;4.72;;;1.98;;
43857;SDS011;29507;51.284;5.758;2023-01-06T15:28:54;2.85;;;1.73;;
43857;SDS011;29507;51.284;5.758;2023-01-06T15:31:34;2.70;;;1.40;;
43857;SDS011;29507;51.284;5.758;2023-01-06T15:34:13;3.40;;;2.03;;
43857;SDS011;29507;51.284;5.758;2023-01-06T15:36:59;5.00;;;1.70;;
43857;SDS011;29507;51.284;5.758;2023-01-06T15:39:28;4.07;;;1.90;;
43857;SDS011;29507;51.284;5.758;2023-01-06T15:41:56;3.90;;;1.80;;
43857;SDS011;29507;51.284;5.758;2023-01-06T15:49:37;4.70;;;1.67;;
43857;SDS011;29507;51.284;5.758;2023-01-06T15:52:19;3.38;;;1.85;;
43857;SDS011;29507;51.284;5.758;2023-01-06T15:54:51;3.08;;;1.80;;
43857;SDS011;29507;51.284;5.758;2023-01-06T15:57:19;4.38;;;2.60;;
43857;SDS011;29507;51.284;5.758;2023-01-06T15:59:52;4.75;;;2.25;;
43857;SDS011;29507;51.284;5.758;2023-01-06T16:02:22;4.68;;;2.15;;
43857;SDS011;29507;51.284;5.758;2023-01-06T16:04:50;4.00;;;2.42;;
43857;SDS011;29507;51.284;5.758;2023-01-06T16:07:49;4.00;;;2.50;;
43857;SDS011;29507;51.284;5.758;2023-01-06T16:10:31;3.65;;;2.08;;
43857;SDS011;29507;51.284;5.758;2023-01-06T16:15:42;3.40;;;1.88;;
43857;SDS011;29507;51.284;5.758;2023-01-06T16:18:10;5.97;;;2.38;;
43857;SDS011;29507;51.284;5.758;2023-01-06T16:20:37;6.28;;;2.20;;
43857;SDS011;29507;51.284;5.758;2023-01-06T16:23:02;3.72;;;2.00;;
43857;SDS011;29507;51.284;5.758;2023-01-06T16:25:32;6.25;;;2.13;;
43857;SDS011;29507;51.284;5.758;2023-01-06T16:27:59;5.53;;;2.60;;
43857;SDS011;29507;51.284;5.758;2023-01-06T16:30:31;5.97;;;2.60;;
43857;SDS011;29507;51.284;5.758;2023-01-06T16:33:00;4.85;;;2.92;;
43857;SDS011;29507;51.284;5.758;2023-01-06T16:35:27;4.90;;;2.58;;
43857;SDS011;29507;51.284;5.758;2023-01-06T16:37:55;5.03;;;2.47;;
43857;SDS011;29507;51.284;5.758;2023-01-06T16:40:21;5.70;;;2.92;;
43857;SDS011;29507;51.284;5.758;2023-01-06T16:42:49;5.60;;;3.35;;
43857;SDS011;29507;51.284;5.758;2023-01-06T16:45:21;7.05;;;3.33;;
43857;SDS011;29507;51.284;5.758;2023-01-06T16:48:10;5.10;;;3.30;;
43857;SDS011;29507;51.284;5.758;2023-01-06T16:50:43;6.60;;;2.92;;
43857;SDS011;29507;51.284;5.758;2023-01-06T16:53:19;4.22;;;2.70;;
43857;SDS011;29507;51.284;5.758;2023-01-06T16:55:53;5.38;;;3.05;;
43857;SDS011;29507;51.284;5.758;2023-01-06T16:58:23;4.80;;;2.70;;
43857;SDS011;29507;51.284;5.758;2023-01-06T17:00:52;4.70;;;2.33;;
43857;SDS011;29507;51.284;5.758;2023-01-06T17:03:22;3.58;;;2.45;;
43857;SDS011;29507;51.284;5.758;2023-01-06T17:05:52;5.03;;;2.65;;
43857;SDS011;29507;51.284;5.758;2023-01-06T17:08:28;4.32;;;2.30;;
43857;SDS011;29507;51.284;5.758;2023-01-06T17:10:55;3.90;;;2.22;;
43857;SDS011;29507;51.284;5.758;2023-01-06T17:13:23;4.80;;;2.00;;
43857;SDS011;29507;51.284;5.758;2023-01-06T17:21:15;4.18;;;2.00;;
43857;SDS011;29507;51.284;5.758;2023-01-06T17:26:18;8.20;;;2.20;;
43857;SDS011;29507;51.284;5.758;2023-01-06T17:28:45;4.45;;;1.65;;
43857;SDS011;29507;51.284;5.758;2023-01-06T17:31:32;5.72;;;1.92;;
43857;SDS011;29507;51.284;5.758;2023-01-06T17:34:15;5.63;;;2.28;;
43857;SDS011;29507;51.284;5.758;2023-01-06T17:36:48;6.93;;;3.20;;
43857;SDS011;29507;51.284;5.758;2023-01-06T17:41:45;4.65;;;2.85;;
43857;SDS011;29507;51.284;5.758;2023-01-06T17:44:14;5.82;;;2.65;;